sensor_id;sensor_type;location;lat;lon;timestamp;pressure;altitude;pressure_sealevel;temperature;humidity
57572;BME280;44459;43.522;24.470;2023-10-08T00:01:04;100407.69;;;14.09;51.94
57572;BME280;44459;43.522;24.470;2023-10-08T00:03:31;100413.13;;;13.90;52.71
57572;BME280;44459;43.522;24.470;2023-10-08T00:05:58;100415.84;;;13.73;53.29
57572;BME280;44459;43.522;24.470;2023-10-08T00:08:23;100414.13;;;13.57;54.30
57572;BME280;44459;43.522;24.470;2023-10-08T00:10:49;100403.56;;;13.40;54.73
57572;BME280;44459;43.522;24.470;2023-10-08T00:13:16;100401.81;;;13.32;54.97
57572;BME280;44459;43.522;24.470;2023-10-08T00:15:43;100404.50;;;13.26;55.18
57572;BME280;44459;43.522;24.470;2023-10-08T00:18:23;100393.91;;;13.18;55.32
57572;BME280;44459;43.522;24.470;2023-10-08T00:20:50;100392.97;;;13.08;55.54
57572;BME280;44459;43.522;24.470;2023-10-08T00:23:41;100396.53;;;13.00;55.38
57572;BME280;44459;43.522;24.470;2023-10-08T00:26:08;100385.94;;;13.00;55.33
57572;BME280;44459;43.522;24.470;2023-10-08T00:28:34;100385.06;;;12.98;54.73
57572;BME280;44459;43.522;24.470;2023-10-08T00:31:01;100382.44;;;12.98;54.12
57572;BME280;44459;43.522;24.470;2023-10-08T00:33:36;100380.66;;;13.04;53.58
57572;BME280;44459;43.522;24.470;2023-10-08T00:36:01;100383.28;;;13.23;52.59
57572;BME280;44459;43.522;24.470;2023-10-08T00:38:42;100371.75;;;13.39;51.94
57572;BME280;44459;43.522;24.470;2023-10-08T00:41:15;100361.97;;;13.51;51.68
57572;BME280;44459;43.522;24.470;2023-10-08T00:43:40;100366.34;;;13.66;50.85
57572;BME280;44459;43.522;24.470;2023-10-08T00:46:07;100361.84;;;13.79;50.32
57572;BME280;44459;43.522;24.470;2023-10-08T00:49:02;100370.66;;;13.85;50.49
57572;BME280;44459;43.522;24.470;2023-10-08T00:51:47;100372.44;;;13.88;50.17
57572;BME280;44459;43.522;24.470;2023-10-08T00:54:15;100373.28;;;13.88;49.89
57572;BME280;44459;43.522;24.470;2023-10-08T00:56:46;100366.22;;;13.90;49.64
57572;BME280;44459;43.522;24.470;2023-10-08T00:59:18;100370.69;;;13.84;49.94
57572;BME280;44459;43.522;24.470;2023-10-08T01:01:48;100367.16;;;13.80;50.17
57572;BME280;44459;43.522;24.470;2023-10-08T01:04:21;100360.09;;;13.81;49.91
57572;BME280;44459;43.522;24.470;2023-10-08T01:06:53;100370.72;;;13.76;49.98
57572;BME280;44459;43.522;24.470;2023-10-08T01:09:25;100369.84;;;13.77;49.69
57572;BME280;44459;43.522;24.470;2023-10-08T01:12:12;100365.44;;;13.73;49.76
57572;BME280;44459;43.522;24.470;2023-10-08T01:14:45;100367.22;;;13.70;50.09
57572;BME280;44459;43.522;24.470;2023-10-08T01:17:18;100360.19;;;13.63;50.31
57572;BME280;44459;43.522;24.470;2023-10-08T01:19:48;100360.16;;;13.61;50.33
57572;BME280;44459;43.522;24.470;2023-10-08T01:22:20;100354.00;;;13.64;50.08
57572;BME280;44459;43.522;24.470;2023-10-08T01:24:50;100349.56;;;13.61;50.07
57572;BME280;44459;43.522;24.470;2023-10-08T01:27:17;100356.66;;;13.60;50.36
57572;BME280;44459;43.522;24.470;2023-10-08T01:29:51;100349.59;;;13.56;50.61
57572;BME280;44459;43.522;24.470;2023-10-08T01:32:20;100346.03;;;13.54;50.86
57572;BME280;44459;43.522;24.470;2023-10-08T01:34:48;100351.34;;;13.59;50.86
57572;BME280;44459;43.522;24.470;2023-10-08T01:37:14;100352.22;;;13.59;50.48
57572;BME280;44459;43.522;24.470;2023-10-08T01:39:43;100342.53;;;13.55;51.12
57572;BME280;44459;43.522;24.470;2023-10-08T01:42:09;100346.97;;;13.53;50.87
57572;BME280;44459;43.522;24.470;2023-10-08T01:44:49;100338.09;;;13.54;50.94
57572;BME280;44459;43.522;24.470;2023-10-08T01:47:16;100335.41;;;13.57;51.12
57572;BME280;44459;43.522;24.470;2023-10-08T01:49:42;100328.31;;;13.66;51.43
57572;BME280;44459;43.522;24.470;2023-10-08T01:52:10;100326.50;;;13.75;51.29
57572;BME280;44459;43.522;24.470;2023-10-08T01:54:43;100329.16;;;13.72;51.63
57572;BME280;44459;43.522;24.470;2023-10-08T01:57:09;100320.31;;;13.76;51.51
57572;BME280;44459;43.522;24.470;2023-10-08T01:59:35;100324.66;;;13.89;50.83
57572;BME280;44459;43.522;24.470;2023-10-08T02:02:03;100325.44;;;14.03;50.38
57572;BME280;44459;43.522;24.470;2023-10-08T02:04:31;100316.50;;;14.17;49.67
57572;BME280;44459;43.522;24.470;2023-10-08T02:06:58;100322.66;;;14.25;49.61
57572;BME280;44459;43.522;24.470;2023-10-08T02:09:24;100320.81;;;14.40;48.79
57572;BME280;44459;43.522;24.470;2023-10-08T02:11:51;100312.81;;;14.43;48.72
57572;BME280;44459;43.522;24.470;2023-10-08T02:14:19;100320.72;;;14.49;48.73
57572;BME280;44459;43.522;24.470;2023-10-08T02:16:46;100324.19;;;14.56;48.48
57572;BME280;44459;43.522;24.470;2023-10-08T02:19:11;100317.16;;;14.53;48.55
57572;BME280;44459;43.522;24.470;2023-10-08T02:21:38;100324.25;;;14.50;48.62
57572;BME280;44459;43.522;24.470;2023-10-08T02:24:06;100315.41;;;14.48;48.60
57572;BME280;44459;43.522;24.470;2023-10-08T02:26:32;100318.97;;;14.45;48.58
57572;BME280;44459;43.522;24.470;2023-10-08T02:29:00;100318.13;;;14.43;48.60
57572;BME280;44459;43.522;24.470;2023-10-08T02:31:26;100312.88;;;14.36;48.74
57572;BME280;44459;43.522;24.470;2023-10-08T02:33:51;100318.16;;;14.33;48.92
57572;BME280;44459;43.522;24.470;2023-10-08T02:36:17;100318.19;;;14.27;49.15
57572;BME280;44459;43.522;24.470;2023-10-08T02:38:43;100314.69;;;14.25;49.36
57572;BME280;44459;43.522;24.470;2023-10-08T02:41:09;100316.47;;;14.20;49.31
57572;BME280;44459;43.522;24.470;2023-10-08T02:43:36;100319.19;;;14.15;49.32
57572;BME280;44459;43.522;24.470;2023-10-08T02:46:07;100321.88;;;14.12;49.46
57572;BME280;44459;43.522;24.470;2023-10-08T02:48:35;100323.63;;;14.10;49.64
57572;BME280;44459;43.522;24.470;2023-10-08T02:51:01;100323.63;;;14.11;49.47
57572;BME280;44459;43.522;24.470;2023-10-08T02:53:33;100322.78;;;14.03;49.70
57572;BME280;44459;43.522;24.470;2023-10-08T02:55:58;100314.84;;;14.02;49.81
57572;BME280;44459;43.522;24.470;2023-10-08T02:58:24;100314.84;;;13.99;50.10
57572;BME280;44459;43.522;24.470;2023-10-08T03:00:52;100316.66;;;13.92;50.31
57572;BME280;44459;43.522;24.470;2023-10-08T03:03:18;100307.88;;;13.87;50.79
57572;BME280;44459;43.522;24.470;2023-10-08T03:05:45;100315.88;;;13.80;50.70
57572;BME280;44459;43.522;24.470;2023-10-08T03:08:12;100328.28;;;13.78;51.16
57572;BME280;44459;43.522;24.470;2023-10-08T03:10:38;100314.97;;;13.79;51.06
57572;BME280;44459;43.522;24.470;2023-10-08T03:13:05;100309.66;;;13.82;51.21
57572;BME280;44459;43.522;24.470;2023-10-08T03:15:31;100303.47;;;13.82;51.13
57572;BME280;44459;43.522;24.470;2023-10-08T03:18:15;100300.84;;;13.80;51.38
57572;BME280;44459;43.522;24.470;2023-10-08T03:20:41;100302.59;;;13.80;51.65
57572;BME280;44459;43.522;24.470;2023-10-08T03:23:11;100303.53;;;13.74;51.97
57572;BME280;44459;43.522;24.470;2023-10-08T03:25:57;100297.28;;;13.78;51.97
57572;BME280;44459;43.522;24.470;2023-10-08T03:28:28;100302.59;;;13.84;51.80
57572;BME280;44459;43.522;24.470;2023-10-08T03:30:57;100306.06;;;13.89;51.77
57572;BME280;44459;43.522;24.470;2023-10-08T03:33:34;100299.03;;;13.87;51.74
57572;BME280;44459;43.522;24.470;2023-10-08T03:36:07;100311.44;;;13.85;51.86
57572;BME280;44459;43.522;24.470;2023-10-08T03:38:59;100302.59;;;13.81;51.79
57572;BME280;44459;43.522;24.470;2023-10-08T03:41:25;100304.38;;;13.81;51.94
57572;BME280;44459;43.522;24.470;2023-10-08T03:43:55;100303.44;;;13.88;52.19
57572;BME280;44459;43.522;24.470;2023-10-08T03:46:30;100299.94;;;13.84;52.29
57572;BME280;44459;43.522;24.470;2023-10-08T03:48:57;100304.31;;;13.87;52.00
57572;BME280;44459;43.522;24.470;2023-10-08T03:51:29;100296.38;;;13.85;52.25
57572;BME280;44459;43.522;24.470;2023-10-08T03:53:54;100299.00;;;13.88;52.39
57572;BME280;44459;43.522;24.470;2023-10-08T03:56:34;100300.78;;;13.88;52.00
57572;BME280;44459;43.522;24.470;2023-10-08T03:59:05;100292.81;;;13.86;51.81
57572;BME280;44459;43.522;24.470;2023-10-08T04:01:39;100297.22;;;13.90;51.76
57572;BME280;44459;43.522;24.470;2023-10-08T04:04:06;100300.75;;;13.94;51.61
57572;BME280;44459;43.522;24.470;2023-10-08T04:06:31;100299.81;;;13.99;51.33
57572;BME280;44459;43.522;24.470;2023-10-08T04:09:00;100297.13;;;14.02;51.29
57572;BME280;44459;43.522;24.470;2023-10-08T04:11:39;100303.31;;;14.04;51.03
57572;BME280;44459;43.522;24.470;2023-10-08T04:14:24;100284.78;;;14.01;50.94
57572;BME280;44459;43.522;24.470;2023-10-08T04:16:51;100299.78;;;14.04;50.87
57572;BME280;44459;43.522;24.470;2023-10-08T04:19:21;100303.38;;;13.98;51.28
57572;BME280;44459;43.522;24.470;2023-10-08T04:21:54;100290.09;;;13.95;50.77
57572;BME280;44459;43.522;24.470;2023-10-08T04:24:30;100287.47;;;13.94;50.87
57572;BME280;44459;43.522;24.470;2023-10-08T04:27:02;100286.59;;;13.89;50.68
57572;BME280;44459;43.522;24.470;2023-10-08T04:29:34;100284.88;;;13.88;50.53
57572;BME280;44459;43.522;24.470;2023-10-08T04:32:02;100292.78;;;13.92;50.24
57572;BME280;44459;43.522;24.470;2023-10-08T04:34:37;100283.06;;;13.90;50.36
57572;BME280;44459;43.522;24.470;2023-10-08T04:37:03;100290.13;;;13.92;50.59
57572;BME280;44459;43.522;24.470;2023-10-08T04:39:39;100287.50;;;13.91;50.43
57572;BME280;44459;43.522;24.470;2023-10-08T04:42:06;100287.47;;;13.94;50.28
57572;BME280;44459;43.522;24.470;2023-10-08T04:44:36;100276.81;;;13.95;50.70
57572;BME280;44459;43.522;24.470;2023-10-08T04:47:05;100279.47;;;14.01;50.45
57572;BME280;44459;43.522;24.470;2023-10-08T04:49:32;100286.50;;;14.08;50.46
57572;BME280;44459;43.522;24.470;2023-10-08T04:52:06;100285.56;;;14.14;50.57
57572;BME280;44459;43.522;24.470;2023-10-08T04:54:50;100279.34;;;14.17;50.21
57572;BME280;44459;43.522;24.470;2023-10-08T04:57:17;100275.75;;;14.21;50.42
57572;BME280;44459;43.522;24.470;2023-10-08T04:59:44;100276.63;;;14.26;50.25
57572;BME280;44459;43.522;24.470;2023-10-08T05:02:12;100276.56;;;14.30;50.24
57572;BME280;44459;43.522;24.470;2023-10-08T05:04:56;100276.50;;;14.41;50.18
57572;BME280;44459;43.522;24.470;2023-10-08T05:07:32;100268.50;;;14.44;49.85
57572;BME280;44459;43.522;24.470;2023-10-08T05:10:10;100272.84;;;14.55;49.69
57572;BME280;44459;43.522;24.470;2023-10-08T05:12:56;100271.00;;;14.64;49.62
57572;BME280;44459;43.522;24.470;2023-10-08T05:15:30;100269.13;;;14.73;49.04
57572;BME280;44459;43.522;24.470;2023-10-08T05:18:03;100263.72;;;14.81;48.88
57572;BME280;44459;43.522;24.470;2023-10-08T05:20:38;100261.88;;;14.87;48.70
57572;BME280;44459;43.522;24.470;2023-10-08T05:23:17;100261.66;;;15.07;48.03
57572;BME280;44459;43.522;24.470;2023-10-08T05:25:56;100256.16;;;15.24;47.42
57572;BME280;44459;43.522;24.470;2023-10-08T05:28:38;100263.03;;;15.40;47.20
57572;BME280;44459;43.522;24.470;2023-10-08T05:31:29;100256.56;;;15.60;46.40
57572;BME280;44459;43.522;24.470;2023-10-08T05:34:08;100255.44;;;15.78;45.95
57572;BME280;44459;43.522;24.470;2023-10-08T05:36:42;100258.50;;;16.09;45.43
57572;BME280;44459;43.522;24.470;2023-10-08T05:39:26;100251.38;;;16.63;44.37
57572;BME280;44459;43.522;24.470;2023-10-08T05:42:09;100238.25;;;17.41;42.96
57572;BME280;44459;43.522;24.470;2023-10-08T05:44:57;100240.94;;;18.18;40.92
57572;BME280;44459;43.522;24.470;2023-10-08T05:47:35;100248.28;;;18.79;39.41
57572;BME280;44459;43.522;24.470;2023-10-08T05:50:02;100242.31;;;19.33;38.48
57572;BME280;44459;43.522;24.470;2023-10-08T05:52:44;100243.25;;;19.89;37.50
57572;BME280;44459;43.522;24.470;2023-10-08T05:55:31;100235.91;;;20.23;36.59
57572;BME280;44459;43.522;24.470;2023-10-08T05:58:06;100241.44;;;20.45;36.14
57572;BME280;44459;43.522;24.470;2023-10-08T06:00:46;100239.31;;;20.79;35.98
57572;BME280;44459;43.522;24.470;2023-10-08T06:03:31;100237.56;;;21.28;34.82
57572;BME280;44459;43.522;24.470;2023-10-08T06:06:06;100228.56;;;21.52;34.16
57572;BME280;44459;43.522;24.470;2023-10-08T06:08:42;100230.25;;;21.78;34.19
57572;BME280;44459;43.522;24.470;2023-10-08T06:11:18;100231.94;;;22.03;33.82
57572;BME280;44459;43.522;24.470;2023-10-08T06:14:22;100218.44;;;22.47;33.05
57572;BME280;44459;43.522;24.470;2023-10-08T06:17:07;100215.53;;;22.73;32.16
57572;BME280;44459;43.522;24.470;2023-10-08T06:19:51;100203.00;;;22.92;31.60
57572;BME280;44459;43.522;24.470;2023-10-08T06:22:18;100210.06;;;23.34;31.73
57572;BME280;44459;43.522;24.470;2023-10-08T06:24:44;100199.03;;;23.59;31.15
57572;BME280;44459;43.522;24.470;2023-10-08T06:27:10;100199.16;;;23.74;30.25
57572;BME280;44459;43.522;24.470;2023-10-08T06:29:38;100198.84;;;23.99;30.35
57572;BME280;44459;43.522;24.470;2023-10-08T06:32:10;100208.59;;;24.20;29.67
57572;BME280;44459;43.522;24.470;2023-10-08T06:34:37;100203.47;;;24.16;29.85
57572;BME280;44459;43.522;24.470;2023-10-08T06:37:05;100200.69;;;24.51;29.16
57572;BME280;44459;43.522;24.470;2023-10-08T06:39:31;100207.03;;;24.50;28.97
57572;BME280;44459;43.522;24.470;2023-10-08T06:42:13;100206.78;;;25.07;28.52
57572;BME280;44459;43.522;24.470;2023-10-08T06:44:40;100195.13;;;24.54;28.91
57572;BME280;44459;43.522;24.470;2023-10-08T06:47:08;100206.34;;;23.57;30.28
57572;BME280;44459;43.522;24.470;2023-10-08T06:49:35;100203.78;;;22.94;31.25
57572;BME280;44459;43.522;24.470;2023-10-08T06:52:01;100208.38;;;22.52;32.01
57572;BME280;44459;43.522;24.470;2023-10-08T06:54:27;100197.16;;;22.21;32.13
57572;BME280;44459;43.522;24.470;2023-10-08T06:56:56;100203.34;;;22.01;33.02
57572;BME280;44459;43.522;24.470;2023-10-08T06:59:21;100204.34;;;21.98;32.51
57572;BME280;44459;43.522;24.470;2023-10-08T07:01:51;100206.41;;;21.92;32.51
57572;BME280;44459;43.522;24.470;2023-10-08T07:04:17;100207.53;;;21.86;32.43
57572;BME280;44459;43.522;24.470;2023-10-08T07:06:44;100205.00;;;21.82;32.39
57572;BME280;44459;43.522;24.470;2023-10-08T07:09:12;100201.63;;;21.77;31.93
57572;BME280;44459;43.522;24.470;2023-10-08T07:11:53;100208.72;;;21.79;32.35
57572;BME280;44459;43.522;24.470;2023-10-08T07:14:26;100214.88;;;21.81;32.42
57572;BME280;44459;43.522;24.470;2023-10-08T07:16:55;100203.00;;;21.87;31.84
57572;BME280;44459;43.522;24.470;2023-10-08T07:19:24;100205.63;;;21.88;32.14
57572;BME280;44459;43.522;24.470;2023-10-08T07:21:59;100183.22;;;21.89;31.79
57572;BME280;44459;43.522;24.470;2023-10-08T07:24:31;100199.06;;;21.97;31.72
57572;BME280;44459;43.522;24.470;2023-10-08T07:27:01;100194.34;;;22.02;31.89
57572;BME280;44459;43.522;24.470;2023-10-08T07:29:31;100197.53;;;22.12;31.58
57572;BME280;44459;43.522;24.470;2023-10-08T07:31:58;100203.44;;;22.62;30.78
57572;BME280;44459;43.522;24.470;2023-10-08T07:34:37;100189.66;;;22.49;30.98
57572;BME280;44459;43.522;24.470;2023-10-08T07:37:03;100176.59;;;22.40;31.03
57572;BME280;44459;43.522;24.470;2023-10-08T07:39:31;100184.63;;;22.41;30.91
57572;BME280;44459;43.522;24.470;2023-10-08T07:41:57;100187.81;;;22.49;31.39
57572;BME280;44459;43.522;24.470;2023-10-08T07:44:25;100184.66;;;22.60;31.12
57572;BME280;44459;43.522;24.470;2023-10-08T07:46:52;100191.66;;;22.64;31.29
57572;BME280;44459;43.522;24.470;2023-10-08T07:49:20;100182.13;;;22.77;31.07
57572;BME280;44459;43.522;24.470;2023-10-08T07:51:45;100184.22;;;22.91;31.10
57572;BME280;44459;43.522;24.470;2023-10-08T07:54:21;100180.44;;;22.95;30.76
57572;BME280;44459;43.522;24.470;2023-10-08T07:56:50;100178.56;;;22.97;30.75
57572;BME280;44459;43.522;24.470;2023-10-08T07:59:35;100172.03;;;23.02;30.78
57572;BME280;44459;43.522;24.470;2023-10-08T08:02:05;100181.91;;;23.02;30.73
57572;BME280;44459;43.522;24.470;2023-10-08T08:04:39;100178.81;;;23.11;30.57
57572;BME280;44459;43.522;24.470;2023-10-08T08:07:05;100167.69;;;23.37;30.51
57572;BME280;44459;43.522;24.470;2023-10-08T08:09:31;100177.94;;;23.49;30.40
57572;BME280;44459;43.522;24.470;2023-10-08T08:12:05;100164.16;;;23.55;30.34
57572;BME280;44459;43.522;24.470;2023-10-08T08:14:33;100159.84;;;23.51;30.78
57572;BME280;44459;43.522;24.470;2023-10-08T08:16:58;100161.03;;;23.46;30.74
57572;BME280;44459;43.522;24.470;2023-10-08T08:19:41;100173.91;;;23.39;31.06
57572;BME280;44459;43.522;24.470;2023-10-08T08:22:09;100165.28;;;23.31;31.27
57572;BME280;44459;43.522;24.470;2023-10-08T08:24:35;100162.66;;;23.30;31.52
57572;BME280;44459;43.522;24.470;2023-10-08T08:27:03;100162.38;;;23.36;31.06
57572;BME280;44459;43.522;24.470;2023-10-08T08:29:37;100167.16;;;23.49;31.29
57572;BME280;44459;43.522;24.470;2023-10-08T08:32:12;100166.03;;;23.53;30.92
57572;BME280;44459;43.522;24.470;2023-10-08T08:34:44;100152.19;;;23.61;30.86
57572;BME280;44459;43.522;24.470;2023-10-08T08:37:13;100157.56;;;23.80;31.26
57572;BME280;44459;43.522;24.470;2023-10-08T08:39:39;100155.47;;;24.03;31.42
57572;BME280;44459;43.522;24.470;2023-10-08T08:42:06;100166.31;;;24.21;31.11
57572;BME280;44459;43.522;24.470;2023-10-08T08:44:35;100161.78;;;24.21;31.24
57572;BME280;44459;43.522;24.470;2023-10-08T08:47:05;100150.06;;;24.22;31.51
57572;BME280;44459;43.522;24.470;2023-10-08T08:49:35;100155.19;;;24.27;31.09
57572;BME280;44459;43.522;24.470;2023-10-08T08:52:04;100144.72;;;24.21;31.49
57572;BME280;44459;43.522;24.470;2023-10-08T08:54:30;100146.81;;;24.33;31.43
57572;BME280;44459;43.522;24.470;2023-10-08T08:56:59;100140.84;;;24.61;30.85
57572;BME280;44459;43.522;24.470;2023-10-08T08:59:27;100144.09;;;24.84;31.43
57572;BME280;44459;43.522;24.470;2023-10-08T09:01:57;100130.09;;;24.93;30.57
57572;BME280;44459;43.522;24.470;2023-10-08T09:04:34;100138.38;;;25.06;30.69
57572;BME280;44459;43.522;24.470;2023-10-08T09:07:02;100127.84;;;25.01;30.77
57572;BME280;44459;43.522;24.470;2023-10-08T09:09:33;100132.38;;;25.01;31.01
57572;BME280;44459;43.522;24.470;2023-10-08T09:11:59;100123.09;;;24.89;31.14
57572;BME280;44459;43.522;24.470;2023-10-08T09:14:26;100115.28;;;25.00;31.18
57572;BME280;44459;43.522;24.470;2023-10-08T09:16:55;100117.22;;;24.98;30.97
57572;BME280;44459;43.522;24.470;2023-10-08T09:19:22;100119.91;;;24.98;31.23
57572;BME280;44459;43.522;24.470;2023-10-08T09:22:04;100110.75;;;25.01;30.51
57572;BME280;44459;43.522;24.470;2023-10-08T09:24:37;100104.66;;;24.97;30.82
57572;BME280;44459;43.522;24.470;2023-10-08T09:27:07;100101.53;;;25.21;31.07
57572;BME280;44459;43.522;24.470;2023-10-08T09:29:36;100109.75;;;25.35;31.01
57572;BME280;44459;43.522;24.470;2023-10-08T09:32:05;100104.16;;;25.38;30.90
57572;BME280;44459;43.522;24.470;2023-10-08T09:34:33;100105.56;;;25.45;30.35
57572;BME280;44459;43.522;24.470;2023-10-08T09:37:00;100098.53;;;25.58;30.98
57572;BME280;44459;43.522;24.470;2023-10-08T09:39:27;100096.50;;;25.77;30.09
57572;BME280;44459;43.522;24.470;2023-10-08T09:41:55;100086.31;;;25.82;30.32
57572;BME280;44459;43.522;24.470;2023-10-08T09:44:22;100079.03;;;25.83;30.31
57572;BME280;44459;43.522;24.470;2023-10-08T09:46:59;100087.84;;;25.86;30.54
57572;BME280;44459;43.522;24.470;2023-10-08T09:49:38;100058.94;;;26.02;30.37
57572;BME280;44459;43.522;24.470;2023-10-08T09:52:07;100073.53;;;26.14;30.27
57572;BME280;44459;43.522;24.470;2023-10-08T09:55:02;100064.75;;;26.40;30.03
57572;BME280;44459;43.522;24.470;2023-10-08T09:57:38;100059.34;;;26.40;29.99
57572;BME280;44459;43.522;24.470;2023-10-08T10:00:05;100063.44;;;26.18;30.10
57572;BME280;44459;43.522;24.470;2023-10-08T10:02:36;100068.31;;;26.11;30.59
57572;BME280;44459;43.522;24.470;2023-10-08T10:05:02;100055.22;;;26.03;30.31
57572;BME280;44459;43.522;24.470;2023-10-08T10:07:29;100052.19;;;26.10;30.64
57572;BME280;44459;43.522;24.470;2023-10-08T10:09:55;100053.63;;;26.31;29.95
57572;BME280;44459;43.522;24.470;2023-10-08T10:12:25;100055.09;;;26.50;29.71
57572;BME280;44459;43.522;24.470;2023-10-08T10:14:53;100050.25;;;26.56;29.56
57572;BME280;44459;43.522;24.470;2023-10-08T10:17:28;100041.56;;;26.65;29.40
57572;BME280;44459;43.522;24.470;2023-10-08T10:20:00;100042.78;;;26.73;29.34
57572;BME280;44459;43.522;24.470;2023-10-08T10:22:28;100062.78;;;26.86;28.86
57572;BME280;44459;43.522;24.470;2023-10-08T10:24:54;100046.53;;;26.86;28.93
57572;BME280;44459;43.522;24.470;2023-10-08T10:27:20;100041.88;;;26.88;28.94
57572;BME280;44459;43.522;24.470;2023-10-08T10:29:47;100023.28;;;26.96;28.68
57572;BME280;44459;43.522;24.470;2023-10-08T10:32:14;100030.75;;;26.93;28.33
57572;BME280;44459;43.522;24.470;2023-10-08T10:34:42;100027.16;;;26.92;28.14
57572;BME280;44459;43.522;24.470;2023-10-08T10:37:08;100017.19;;;26.93;28.29
57572;BME280;44459;43.522;24.470;2023-10-08T10:39:35;100013.97;;;27.00;28.30
57572;BME280;44459;43.522;24.470;2023-10-08T10:42:05;100017.75;;;26.98;28.04
57572;BME280;44459;43.522;24.470;2023-10-08T10:44:44;100011.84;;;26.77;28.28
57572;BME280;44459;43.522;24.470;2023-10-08T10:47:09;100011.66;;;26.66;28.93
57572;BME280;44459;43.522;24.470;2023-10-08T10:49:46;100017.47;;;26.74;29.02
57572;BME280;44459;43.522;24.470;2023-10-08T10:52:23;100002.56;;;26.95;28.52
57572;BME280;44459;43.522;24.470;2023-10-08T10:55:13;100008.53;;;27.00;28.79
57572;BME280;44459;43.522;24.470;2023-10-08T10:57:40;100010.91;;;26.92;28.67
57572;BME280;44459;43.522;24.470;2023-10-08T11:00:09;99997.56;;;26.89;28.86
57572;BME280;44459;43.522;24.470;2023-10-08T11:03:04;99995.59;;;26.91;29.02
57572;BME280;44459;43.522;24.470;2023-10-08T11:05:42;99996.75;;;27.01;28.53
57572;BME280;44459;43.522;24.470;2023-10-08T11:08:13;100002.75;;;27.07;28.69
57572;BME280;44459;43.522;24.470;2023-10-08T11:10:42;100004.47;;;27.08;28.80
57572;BME280;44459;43.522;24.470;2023-10-08T11:13:11;100016.19;;;27.08;28.72
57572;BME280;44459;43.522;24.470;2023-10-08T11:15:41;100007.78;;;26.98;28.78
57572;BME280;44459;43.522;24.470;2023-10-08T11:18:10;100000.63;;;26.97;28.54
57572;BME280;44459;43.522;24.470;2023-10-08T11:20:36;99998.69;;;26.99;28.41
57572;BME280;44459;43.522;24.470;2023-10-08T11:23:09;99995.88;;;27.01;28.27
57572;BME280;44459;43.522;24.470;2023-10-08T11:25:57;100004.78;;;27.03;28.53
57572;BME280;44459;43.522;24.470;2023-10-08T11:28:32;99995.28;;;27.10;28.78
57572;BME280;44459;43.522;24.470;2023-10-08T11:31:10;99988.03;;;27.11;28.06
57572;BME280;44459;43.522;24.470;2023-10-08T11:33:37;99974.47;;;27.11;28.26
57572;BME280;44459;43.522;24.470;2023-10-08T11:36:05;99981.22;;;27.18;28.57
57572;BME280;44459;43.522;24.470;2023-10-08T11:38:44;99979.31;;;27.32;28.44
57572;BME280;44459;43.522;24.470;2023-10-08T11:41:17;99987.38;;;27.34;28.30
57572;BME280;44459;43.522;24.470;2023-10-08T11:43:49;99979.69;;;27.40;28.60
57572;BME280;44459;43.522;24.470;2023-10-08T11:48:59;99975.72;;;27.46;28.55
57572;BME280;44459;43.522;24.470;2023-10-08T11:51:30;99966.41;;;27.50;28.56
57572;BME280;44459;43.522;24.470;2023-10-08T11:54:02;99972.44;;;27.41;28.46
57572;BME280;44459;43.522;24.470;2023-10-08T11:56:29;99964.25;;;27.55;28.42
57572;BME280;44459;43.522;24.470;2023-10-08T11:58:55;99959.16;;;27.63;28.53
57572;BME280;44459;43.522;24.470;2023-10-08T12:01:25;99956.28;;;27.66;27.96
57572;BME280;44459;43.522;24.470;2023-10-08T12:03:55;99950.72;;;27.68;27.83
57572;BME280;44459;43.522;24.470;2023-10-08T12:06:25;99950.06;;;27.64;27.95
57572;BME280;44459;43.522;24.470;2023-10-08T12:08:55;99954.00;;;27.73;27.98
57572;BME280;44459;43.522;24.470;2023-10-08T12:11:24;99933.03;;;27.87;27.90
57572;BME280;44459;43.522;24.470;2023-10-08T12:13:56;99933.03;;;27.87;28.74
57572;BME280;44459;43.522;24.470;2023-10-08T12:16:24;99938.47;;;27.87;28.43
57572;BME280;44459;43.522;24.470;2023-10-08T12:18:51;99960.00;;;27.90;28.41
57572;BME280;44459;43.522;24.470;2023-10-08T12:21:28;99932.75;;;27.79;28.54
57572;BME280;44459;43.522;24.470;2023-10-08T12:23:57;99931.00;;;27.78;28.35
57572;BME280;44459;43.522;24.470;2023-10-08T12:26:23;99928.28;;;27.66;28.58
57572;BME280;44459;43.522;24.470;2023-10-08T12:28:50;99921.97;;;27.65;28.75
57572;BME280;44459;43.522;24.470;2023-10-08T12:31:16;99897.91;;;27.73;28.49
57572;BME280;44459;43.522;24.470;2023-10-08T12:33:42;99927.94;;;27.70;28.82
57572;BME280;44459;43.522;24.470;2023-10-08T12:36:10;99916.63;;;27.64;28.88
57572;BME280;44459;43.522;24.470;2023-10-08T12:38:37;99913.53;;;27.70;28.89
57572;BME280;44459;43.522;24.470;2023-10-08T12:41:02;99915.16;;;27.72;28.84
57572;BME280;44459;43.522;24.470;2023-10-08T12:43:43;99915.88;;;27.62;28.88
57572;BME280;44459;43.522;24.470;2023-10-08T12:46:12;99915.88;;;27.62;29.13
57572;BME280;44459;43.522;24.470;2023-10-08T12:48:47;99900.41;;;27.76;28.67
57572;BME280;44459;43.522;24.470;2023-10-08T12:51:17;99911.34;;;27.87;28.92
57572;BME280;44459;43.522;24.470;2023-10-08T12:53:44;99911.59;;;27.97;28.47
57572;BME280;44459;43.522;24.470;2023-10-08T12:56:16;99909.63;;;27.86;28.45
57572;BME280;44459;43.522;24.470;2023-10-08T12:58:43;99914.06;;;27.75;28.88
57572;BME280;44459;43.522;24.470;2023-10-08T13:01:14;99929.97;;;27.67;28.51
57572;BME280;44459;43.522;24.470;2023-10-08T13:03:43;99918.81;;;27.59;29.04